Time;durP1;ratioP1;P1;durP2;ratioP2;P2;SDS_P1;SDS_P2;PMS_P1;PMS_P2;Temp;Humidity;BMP_temperature;BMP_pressure;BME280_temperature;BME280_humidity;BME280_pressure;Samples;Min_cycle;Max_cycle;Signal;HPM_P1;HPM_P2
2023/04/03 00:00:22;;;;;;;5.28;2.47;;;;;;;-1.87;100.00;103308.56;5061792;28;20605;-48
2023/04/03 00:02:47;;;;;;;6.15;2.40;;;;;;;-1.90;100.00;103299.66;5060225;28;20496;-51
2023/04/03 00:05:13;;;;;;;6.50;2.50;;;;;;;-1.82;100.00;103303.56;5053069;28;20238;-48
2023/04/03 00:07:38;;;;;;;3.88;2.38;;;;;;;-1.86;100.00;103312.09;5056434;28;20194;-49
2023/04/03 00:10:04;;;;;;;4.13;2.55;;;;;;;-1.85;100.00;103299.88;5062229;28;20702;-51
2023/04/03 00:12:30;;;;;;;7.68;2.50;;;;;;;-1.89;100.00;103304.97;5055773;28;20232;-49
2023/04/03 00:14:55;;;;;;;8.90;2.70;;;;;;;-1.92;100.00;103317.06;5053385;28;20171;-47
2023/04/03 00:17:21;;;;;;;6.10;2.67;;;;;;;-1.98;100.00;103317.63;5060435;28;20195;-48
2023/04/03 00:19:46;;;;;;;4.78;2.53;;;;;;;-1.90;100.00;103313.69;5063814;28;20720;-48
2023/04/03 00:22:12;;;;;;;6.85;2.83;;;;;;;-1.81;100.00;103320.25;5060532;28;20190;-51
2023/04/03 00:24:37;;;;;;;5.20;3.35;;;;;;;-1.80;100.00;103320.31;5055973;28;20278;-50
2023/04/03 00:27:03;;;;;;;9.90;3.67;;;;;;;-1.89;100.00;103319.84;5058013;28;20505;-50
2023/04/03 00:29:28;;;;;;;5.32;3.65;;;;;;;-2.00;100.00;103321.88;5055957;28;20196;-53
2023/04/03 00:31:54;;;;;;;8.73;3.28;;;;;;;-2.08;100.00;103325.81;5053871;28;20238;-48
2023/04/03 00:34:19;;;;;;;10.77;4.22;;;;;;;-2.03;100.00;103321.72;5052244;28;20179;-48
2023/04/03 00:36:45;;;;;;;11.25;4.80;;;;;;;-2.02;100.00;103323.53;5064143;28;20205;-50
2023/04/03 00:39:10;;;;;;;11.93;4.30;;;;;;;-2.18;100.00;103323.53;5063272;28;20277;-52
2023/04/03 00:41:36;;;;;;;10.43;4.50;;;;;;;-2.30;100.00;103334.25;5054822;28;20183;-47
2023/04/03 00:44:21;;;;;;;11.68;5.05;;;;;;;-2.39;100.00;103333.75;5070411;28;20187;-50
2023/04/03 00:46:47;;;;;;;10.73;4.90;;;;;;;-2.45;100.00;103331.66;5055591;28;20221;-48
2023/04/03 00:49:13;;;;;;;10.57;4.40;;;;;;;-2.41;100.00;103346.78;5060904;28;20705;-52
2023/04/03 00:51:38;;;;;;;9.05;4.65;;;;;;;-2.36;100.00;103341.78;5054226;28;20438;-47
2023/04/03 00:54:07;;;;;;;10.88;4.55;;;;;;;-2.25;100.00;103335.44;5062857;28;20190;-47
2023/04/03 00:56:35;;;;;;;8.70;4.18;;;;;;;-2.15;100.00;103329.84;5060394;28;20206;-48
2023/04/03 00:59:06;;;;;;;10.18;4.68;;;;;;;-2.17;100.00;103341.09;5058858;28;20232;-48
2023/04/03 01:01:32;;;;;;;8.32;4.10;;;;;;;-2.11;100.00;103337.06;5050448;28;20508;-52
2023/04/03 01:04:02;;;;;;;8.50;4.32;;;;;;;-2.13;100.00;103332.56;5058266;28;20174;-52
2023/04/03 01:06:33;;;;;;;6.63;3.88;;;;;;;-2.14;100.00;103336.91;5053197;28;20194;-49
2023/04/03 01:09:05;;;;;;;9.82;4.05;;;;;;;-2.16;100.00;103335.91;5053233;28;20194;-49
2023/04/03 01:11:31;;;;;;;7.55;3.85;;;;;;;-2.08;100.00;103341.56;5055251;28;20200;-48
2023/04/03 01:13:56;;;;;;;10.57;3.95;;;;;;;-2.22;100.00;103353.97;5054707;28;20171;-52
2023/04/03 01:16:24;;;;;;;7.20;3.63;;;;;;;-2.18;100.00;103339.28;5051558;28;20698;-47
2023/04/03 01:18:50;;;;;;;8.93;3.95;;;;;;;-2.15;100.00;103334.19;5053750;28;20567;-48
2023/04/03 01:21:45;;;;;;;5.82;3.03;;;;;;;-2.22;100.00;103348.72;5051676;28;20220;-48
2023/04/03 01:24:28;;;;;;;5.45;3.10;;;;;;;-2.30;100.00;103344.75;5063202;28;20251;-51
2023/04/03 01:26:55;;;;;;;2.22;1.90;;;;;;;-2.31;100.00;103340.34;5055393;28;20258;-51
2023/04/03 01:29:20;;;;;;;5.40;2.20;;;;;;;-2.30;100.00;103339.50;5051761;28;20191;-50
2023/04/03 01:31:55;;;;;;;8.63;2.60;;;;;;;-2.45;100.00;103341.28;5048523;28;20171;-49
2023/04/03 01:34:21;;;;;;;7.85;3.20;;;;;;;-2.35;100.00;103335.72;5032476;28;20212;-52
2023/04/03 01:36:47;;;;;;;5.18;2.70;;;;;;;-2.38;100.00;103338.19;5050975;28;20221;-50
2023/04/03 01:39:12;;;;;;;5.93;2.30;;;;;;;-2.50;100.00;103347.16;5051019;28;20202;-48
2023/04/03 01:41:38;;;;;;;6.15;2.72;;;;;;;-2.45;100.00;103341.28;5045676;28;20184;-50
2023/04/03 01:44:12;;;;;;;6.60;2.53;;;;;;;-2.62;100.00;103341.25;5058129;28;20266;-51
2023/04/03 01:46:37;;;;;;;5.55;2.00;;;;;;;-2.72;100.00;103341.53;5053206;28;20197;-49
2023/04/03 01:49:04;;;;;;;4.72;2.20;;;;;;;-2.61;100.00;103332.53;5050298;28;20226;-48
2023/04/03 01:51:30;;;;;;;2.53;1.95;;;;;;;-2.51;100.00;103341.84;5057067;28;20191;-48
2023/04/03 01:53:56;;;;;;;5.78;1.98;;;;;;;-2.46;100.00;103339.50;5058331;28;20237;-50
2023/04/03 01:56:22;;;;;;;4.32;2.10;;;;;;;-2.56;100.00;103338.97;5050465;28;20190;-50
2023/04/03 01:58:48;;;;;;;5.47;1.65;;;;;;;-2.49;100.00;103337.59;5053724;28;20194;-49
2023/04/03 02:01:14;;;;;;;3.80;1.70;;;;;;;-2.44;100.00;103344.00;5053614;28;20183;-46
2023/04/03 02:03:40;;;;;;;5.32;1.77;;;;;;;-2.57;100.00;103342.41;5046996;28;20760;-46
2023/04/03 02:06:06;;;;;;;3.17;1.98;;;;;;;-2.77;100.00;103340.38;5052589;28;20194;-50
2023/04/03 02:08:32;;;;;;;4.70;2.08;;;;;;;-2.81;100.00;103333.16;5057056;28;20226;-47
2023/04/03 02:10:58;;;;;;;3.17;1.92;;;;;;;-2.71;100.00;103340.75;5056463;28;20171;-48
2023/04/03 02:13:23;;;;;;;2.97;2.05;;;;;;;-2.61;100.00;103342.16;5061666;28;20182;-48
2023/04/03 02:15:49;;;;;;;6.25;2.33;;;;;;;-2.78;100.00;103336.84;5048555;28;20475;-50
2023/04/03 02:18:16;;;;;;;5.35;2.33;;;;;;;-2.71;100.00;103332.88;5051285;28;20186;-50
2023/04/03 02:20:42;;;;;;;5.80;2.13;;;;;;;-2.79;100.00;103334.16;5056668;28;20677;-49
2023/04/03 02:23:07;;;;;;;4.00;2.20;;;;;;;-2.84;100.00;103331.25;5060326;28;20180;-49
2023/04/03 02:25:33;;;;;;;4.88;2.60;;;;;;;-2.81;100.00;103341.03;5053814;28;20194;-49
2023/04/03 02:27:59;;;;;;;5.28;1.92;;;;;;;-2.80;100.00;103338.50;5058127;28;20203;-48
2023/04/03 02:30:25;;;;;;;3.05;1.95;;;;;;;-2.82;100.00;103326.09;5055908;28;20207;-49
2023/04/03 02:32:50;;;;;;;3.42;1.80;;;;;;;-2.79;100.00;103335.03;5057250;28;20188;-48
2023/04/03 02:35:16;;;;;;;4.07;1.95;;;;;;;-2.95;100.00;103345.50;5051843;28;20597;-48
2023/04/03 02:37:42;;;;;;;2.97;1.50;;;;;;;-3.03;100.00;103331.91;5051256;28;20207;-48
2023/04/03 02:40:08;;;;;;;3.03;1.30;;;;;;;-3.01;100.00;103346.03;5050352;28;20171;-52
2023/04/03 02:42:34;;;;;;;3.92;1.58;;;;;;;-2.93;100.00;103333.34;5067896;28;20221;-48
2023/04/03 02:45:00;;;;;;;3.65;1.90;;;;;;;-2.86;100.00;103326.72;5068250;28;20651;-49
2023/04/03 02:47:27;;;;;;;2.20;1.48;;;;;;;-2.95;100.00;103335.00;5027907;28;20339;-49
2023/04/03 02:49:53;;;;;;;2.33;1.40;;;;;;;-2.93;100.00;103331.66;5038464;28;20171;-46
2023/04/03 02:52:19;;;;;;;3.95;1.38;;;;;;;-2.86;100.00;103331.97;5048945;28;20188;-45
2023/04/03 02:54:44;;;;;;;2.72;1.50;;;;;;;-2.81;100.00;103333.16;5044287;28;20172;-48
2023/04/03 02:57:10;;;;;;;1.80;1.20;;;;;;;-2.88;100.00;103331.91;5042803;28;20246;-52
2023/04/03 02:59:36;;;;;;;4.72;1.60;;;;;;;-2.85;100.00;103337.31;5045958;28;20168;-45
2023/04/03 03:02:02;;;;;;;5.35;1.50;;;;;;;-2.94;100.00;103337.69;5044309;28;20175;-49
2023/04/03 03:04:28;;;;;;;3.63;1.55;;;;;;;-2.93;100.00;103341.19;5047854;28;20317;-48
2023/04/03 03:06:55;;;;;;;3.53;1.50;;;;;;;-2.94;100.00;103332.44;5056342;28;20692;-45
2023/04/03 03:09:21;;;;;;;2.10;1.20;;;;;;;-2.94;100.00;103342.94;5065196;28;20249;-48
2023/04/03 03:11:47;;;;;;;2.75;1.23;;;;;;;-2.91;100.00;103345.75;5051463;28;20757;-47
2023/04/03 03:14:12;;;;;;;3.00;1.38;;;;;;;-2.90;100.00;103342.28;5050041;28;20184;-47
2023/04/03 03:16:37;;;;;;;3.35;1.55;;;;;;;-2.88;100.00;103347.63;5052019;28;20202;-47
2023/04/03 03:19:03;;;;;;;1.95;1.20;;;;;;;-2.99;100.00;103338.25;5054906;28;20179;-49
2023/04/03 03:21:29;;;;;;;5.38;1.75;;;;;;;-3.02;100.00;103336.34;5047316;28;20184;-46
2023/04/03 03:23:55;;;;;;;1.95;1.10;;;;;;;-3.09;100.00;103331.56;5052765;28;20618;-46
2023/04/03 03:26:20;;;;;;;2.38;1.33;;;;;;;-3.06;100.00;103339.63;5059304;28;20198;-47
2023/04/03 03:28:46;;;;;;;3.42;1.42;;;;;;;-3.28;100.00;103332.22;5063757;28;20227;-47
2023/04/03 03:31:12;;;;;;;4.38;1.80;;;;;;;-3.39;100.00;103341.13;5053241;28;20599;-47
2023/04/03 03:33:39;;;;;;;5.85;1.55;;;;;;;-3.31;100.00;103338.16;5055437;28;20186;-47
2023/04/03 03:36:04;;;;;;;3.58;1.60;;;;;;;-3.31;100.00;103338.16;5055807;28;20539;-46
2023/04/03 03:38:30;;;;;;;1.60;1.48;;;;;;;-3.33;100.00;103334.53;5057898;28;20166;-47
2023/04/03 03:40:57;;;;;;;2.00;1.10;;;;;;;-3.28;100.00;103345.31;5063595;28;20183;-43
2023/04/03 03:43:24;;;;;;;2.42;1.20;;;;;;;-3.22;100.00;103337.78;5047173;28;20562;-43
2023/04/03 03:45:52;;;;;;;3.08;1.35;;;;;;;-3.17;100.00;103339.00;5060543;28;20565;-43
2023/04/03 03:48:19;;;;;;;3.15;1.58;;;;;;;-3.19;100.00;103344.94;5052631;28;20618;-47
2023/04/03 03:50:45;;;;;;;2.28;1.40;;;;;;;-3.16;100.00;103345.13;5052734;28;20626;-49
2023/04/03 03:53:11;;;;;;;2.90;1.27;;;;;;;-3.13;100.00;103337.44;5054108;28;20184;-47
2023/04/03 03:55:37;;;;;;;3.13;1.42;;;;;;;-3.26;100.00;103342.78;5060181;28;20217;-47
2023/04/03 03:58:03;;;;;;;2.78;1.80;;;;;;;-3.19;100.00;103342.31;5064374;28;20195;-49
2023/04/03 04:00:30;;;;;;;3.80;1.80;;;;;;;-3.23;100.00;103343.88;5052271;28;20179;-46
2023/04/03 04:02:56;;;;;;;3.85;1.73;;;;;;;-3.37;100.00;103344.75;5055359;28;20368;-46
2023/04/03 04:05:23;;;;;;;3.42;1.45;;;;;;;-3.41;100.00;103348.94;5060093;28;20187;-47
2023/04/03 04:07:49;;;;;;;3.08;1.73;;;;;;;-3.37;100.00;103340.44;5056678;28;20213;-50
2023/04/03 04:10:15;;;;;;;8.93;2.15;;;;;;;-3.44;100.00;103353.06;5059758;28;20546;-48
2023/04/03 04:12:42;;;;;;;4.45;1.60;;;;;;;-3.38;100.00;103346.47;5057447;28;20236;-48
2023/04/03 04:15:09;;;;;;;3.75;1.50;;;;;;;-3.32;100.00;103356.44;5058426;28;20264;-50
2023/04/03 04:17:36;;;;;;;2.20;1.83;;;;;;;-3.29;100.00;103360.97;5050297;28;20200;-49
2023/04/03 04:20:04;;;;;;;2.63;1.73;;;;;;;-3.22;100.00;103352.63;5051750;28;20191;-48
2023/04/03 04:22:31;;;;;;;3.78;1.80;;;;;;;-3.25;100.00;103353.34;5038878;28;20179;-47
2023/04/03 04:24:56;;;;;;;4.72;1.45;;;;;;;-3.29;100.00;103360.97;5063682;28;20174;-45
2023/04/03 04:27:22;;;;;;;4.43;1.85;;;;;;;-3.38;100.00;103364.81;5069819;28;20290;-48
2023/04/03 04:29:47;;;;;;;4.53;1.52;;;;;;;-3.67;100.00;103362.16;5070052;28;20213;-43
2023/04/03 04:32:14;;;;;;;5.03;1.77;;;;;;;-3.58;100.00;103371.50;5071296;28;20258;-42
2023/04/03 04:34:40;;;;;;;5.13;1.90;;;;;;;-3.57;100.00;103362.81;5070659;28;20190;-44
2023/04/03 04:37:05;;;;;;;5.32;1.95;;;;;;;-3.52;100.00;103370.94;5069137;28;20269;-44
2023/04/03 04:39:31;;;;;;;3.92;1.85;;;;;;;-3.52;100.00;103365.69;5070143;28;20182;-44
2023/04/03 04:41:57;;;;;;;5.28;1.98;;;;;;;-3.48;100.00;103372.03;5070157;28;20178;-45
2023/04/03 04:44:25;;;;;;;4.93;1.70;;;;;;;-3.49;100.00;103380.72;5071051;28;20182;-43
2023/04/03 04:46:51;;;;;;;3.78;1.55;;;;;;;-3.56;100.00;103379.47;5063173;28;20195;-45
2023/04/03 04:49:17;;;;;;;4.25;2.20;;;;;;;-3.66;100.00;103379.69;5049871;28;20616;-47
2023/04/03 04:51:42;;;;;;;4.75;1.70;;;;;;;-3.68;100.00;103378.69;5043886;28;20191;-44
2023/04/03 04:54:09;;;;;;;3.40;1.67;;;;;;;-3.64;100.00;103386.84;5040322;28;20206;-46
2023/04/03 04:56:36;;;;;;;3.35;1.77;;;;;;;-3.66;100.00;103383.22;5049797;28;20210;-46
2023/04/03 04:59:01;;;;;;;5.45;1.90;;;;;;;-3.60;100.00;103395.81;5049600;28;20164;-45
2023/04/03 05:01:27;;;;;;;3.92;2.10;;;;;;;-3.55;100.00;103389.13;5068178;28;20187;-42
2023/04/03 05:04:02;;;;;;;2.33;1.85;;;;;;;-3.48;100.00;103388.66;5054041;28;20182;-41
2023/04/03 05:06:29;;;;;;;4.88;1.90;;;;;;;-3.45;100.00;103387.97;5052857;28;20203;-42
2023/04/03 05:08:56;;;;;;;7.00;2.70;;;;;;;-3.43;100.00;103387.25;5037915;28;20545;-42
2023/04/03 05:11:22;;;;;;;4.90;2.13;;;;;;;-3.47;100.00;103387.88;5057075;28;20178;-43
2023/04/03 05:13:50;;;;;;;5.07;2.45;;;;;;;-3.44;100.00;103390.66;5062674;28;20186;-43
2023/04/03 05:16:16;;;;;;;6.85;2.92;;;;;;;-3.48;100.00;103382.53;5050129;28;20293;-43
2023/04/03 05:18:42;;;;;;;7.97;2.67;;;;;;;-3.27;100.00;103396.94;5055873;28;20186;-44
2023/04/03 05:21:15;;;;;;;4.47;2.53;;;;;;;-2.98;100.00;103398.63;5054793;28;20208;-42
2023/04/03 05:23:41;;;;;;;4.95;2.88;;;;;;;-2.93;100.00;103391.03;5050752;28;20175;-42
2023/04/03 05:26:07;;;;;;;5.95;3.47;;;;;;;-2.98;100.00;103409.13;5054967;28;20230;-42
2023/04/03 05:28:34;;;;;;;8.68;3.08;;;;;;;-2.92;100.00;103406.88;5058004;28;20211;-42
2023/04/03 05:31:00;;;;;;;6.53;3.97;;;;;;;-2.86;100.00;103415.91;5055506;28;20465;-41
2023/04/03 05:33:31;;;;;;;8.80;3.58;;;;;;;-2.70;100.00;103405.50;5060173;28;20262;-43
2023/04/03 05:36:03;;;;;;;5.97;3.38;;;;;;;-2.65;100.00;103411.91;5053881;28;20186;-43
2023/04/03 05:38:32;;;;;;;7.65;3.42;;;;;;;-2.50;100.00;103412.78;5052506;28;20187;-44
2023/04/03 05:40:58;;;;;;;6.15;3.42;;;;;;;-2.10;100.00;103414.13;5053646;28;20191;-43
2023/04/03 05:43:24;;;;;;;6.85;3.33;;;;;;;-1.60;100.00;103410.72;5056940;28;20664;-44
2023/04/03 05:45:51;;;;;;;6.78;3.50;;;;;;;-1.22;100.00;103408.28;5056806;28;20167;-41
2023/04/03 05:48:18;;;;;;;7.28;3.35;;;;;;;-0.93;100.00;103412.44;5058369;28;20218;-41
2023/04/03 05:50:45;;;;;;;7.60;3.63;;;;;;;-0.64;100.00;103422.69;5051901;28;20741;-43
2023/04/03 05:53:24;;;;;;;6.13;3.22;;;;;;;-0.34;100.00;103422.38;5037504;28;20192;-43
2023/04/03 05:55:50;;;;;;;8.23;4.03;;;;;;;0.05;100.00;103411.06;5053010;28;20703;-42
2023/04/03 05:58:16;;;;;;;6.47;3.58;;;;;;;0.07;100.00;103415.56;5048078;28;20179;-43
2023/04/03 06:00:45;;;;;;;8.52;3.78;;;;;;;0.23;100.00;103419.81;5064550;28;20624;-43
2023/04/03 06:03:11;;;;;;;7.57;3.40;;;;;;;0.63;100.00;103418.97;5046371;28;20176;-44
2023/04/03 06:05:37;;;;;;;7.38;3.40;;;;;;;1.09;100.00;103409.50;5060051;28;20170;-43
2023/04/03 06:08:03;;;;;;;6.30;3.42;;;;;;;1.24;100.00;103411.03;5052857;28;20221;-43
2023/04/03 06:10:30;;;;;;;8.95;3.63;;;;;;;1.57;100.00;103418.56;5049308;28;20194;-41
2023/04/03 06:12:56;;;;;;;7.75;3.55;;;;;;;1.91;100.00;103412.00;5050325;28;20801;-46
2023/04/03 06:15:22;;;;;;;5.70;3.28;;;;;;;2.13;100.00;103407.53;5057688;28;20182;-45
2023/04/03 06:17:48;;;;;;;8.55;3.90;;;;;;;2.46;100.00;103395.56;5053771;28;20213;-47
2023/04/03 06:20:14;;;;;;;9.88;4.60;;;;;;;2.80;100.00;103398.50;5048431;28;20182;-44
2023/04/03 06:22:41;;;;;;;6.95;4.75;;;;;;;3.09;100.00;103394.25;5048374;28;20171;-47
2023/04/03 06:25:07;;;;;;;8.77;5.55;;;;;;;3.28;100.00;103387.81;5035747;28;20277;-46
2023/04/03 06:27:33;;;;;;;7.90;4.82;;;;;;;3.21;98.36;103385.78;5057476;28;20750;-46
2023/04/03 06:29:58;;;;;;;9.85;3.78;;;;;;;3.21;96.16;103377.84;5055435;28;20281;-45
2023/04/03 06:32:24;;;;;;;7.35;3.60;;;;;;;3.23;95.01;103374.38;5050090;28;20175;-45
2023/04/03 06:34:50;;;;;;;6.25;3.03;;;;;;;3.49;94.16;103377.00;5056666;28;20187;-44
2023/04/03 06:37:21;;;;;;;4.88;3.20;;;;;;;3.60;92.92;103370.28;5053816;28;20187;-44
2023/04/03 06:39:47;;;;;;;7.32;3.40;;;;;;;4.11;92.18;103374.47;5049674;28;20183;-44
2023/04/03 06:42:12;;;;;;;4.78;3.25;;;;;;;4.21;90.81;103367.69;5052679;28;20537;-47
2023/04/03 06:44:47;;;;;;;7.85;3.60;;;;;;;4.09;89.34;103368.25;5075301;28;20250;-44
2023/04/03 06:47:14;;;;;;;4.20;3.05;;;;;;;4.11;88.38;103358.56;5061886;28;20665;-44
2023/04/03 06:49:40;;;;;;;10.10;3.17;;;;;;;3.95;88.23;103365.16;5047456;28;20176;-46
2023/04/03 06:52:05;;;;;;;6.82;3.20;;;;;;;3.93;87.82;103366.88;5049984;28;20666;-43
2023/04/03 06:54:31;;;;;;;5.90;3.28;;;;;;;4.11;87.60;103364.78;5055059;28;20179;-46
2023/04/03 06:56:57;;;;;;;12.85;3.35;;;;;;;4.17;87.55;103365.81;5053799;28;20253;-45
2023/04/03 06:59:23;;;;;;;11.85;3.35;;;;;;;4.21;87.46;103370.34;5051095;28;20228;-46
2023/04/03 07:01:49;;;;;;;9.73;3.20;;;;;;;4.22;87.69;103377.44;5061486;28;20182;-46
2023/04/03 07:04:15;;;;;;;7.03;3.40;;;;;;;4.45;87.91;103371.03;5067154;28;20174;-45
2023/04/03 07:06:42;;;;;;;10.95;3.15;;;;;;;4.53;87.55;103374.81;5062742;28;20218;-45
2023/04/03 07:09:08;;;;;;;8.73;4.20;;;;;;;4.57;87.17;103380.19;5054452;28;20209;-44
2023/04/03 07:11:34;;;;;;;15.80;4.35;;;;;;;4.67;87.23;103372.53;5056753;28;20269;-46
2023/04/03 07:14:00;;;;;;;13.70;5.72;;;;;;;4.94;86.47;103374.13;5061475;28;20265;-45
2023/04/03 07:16:26;;;;;;;9.18;5.00;;;;;;;4.95;85.30;103370.63;5063364;28;20288;-45
2023/04/03 07:18:52;;;;;;;11.07;4.68;;;;;;;5.30;85.31;103368.84;5065215;28;20591;-44
2023/04/03 07:21:17;;;;;;;12.20;5.20;;;;;;;5.15;84.07;103371.13;5065208;28;20174;-45
2023/04/03 07:23:43;;;;;;;7.07;4.90;;;;;;;5.43;84.01;103378.03;5054884;28;20206;-46
2023/04/03 07:26:09;;;;;;;9.82;4.78;;;;;;;5.53;83.46;103371.16;5053368;28;20644;-42
2023/04/03 07:28:35;;;;;;;11.88;5.03;;;;;;;5.71;82.85;103355.63;5053452;28;20689;-44
2023/04/03 07:31:04;;;;;;;11.23;4.03;;;;;;;5.86;82.17;103349.78;5051463;28;20175;-44
2023/04/03 07:33:30;;;;;;;10.65;5.55;;;;;;;6.01;81.63;103343.88;5053456;28;20172;-45
2023/04/03 07:35:56;;;;;;;6.50;3.13;;;;;;;6.71;80.63;103348.81;5053697;28;20628;-44
2023/04/03 07:38:22;;;;;;;5.43;1.30;;;;;;;7.05;78.09;103323.66;5053177;28;20246;-45
2023/04/03 07:40:49;;;;;;;6.13;1.98;;;;;;;7.28;75.87;103316.03;5053080;28;20189;-45
2023/04/03 07:43:17;;;;;;;3.78;1.20;;;;;;;7.25;74.01;103302.66;5052996;28;20595;-44
2023/04/03 07:45:43;;;;;;;2.92;1.20;;;;;;;7.81;73.14;103297.22;5053111;28;20301;-44
2023/04/03 07:48:12;;;;;;;3.92;1.63;;;;;;;8.15;71.25;103294.94;5053049;28;20191;-44
2023/04/03 07:50:40;;;;;;;4.47;1.35;;;;;;;7.17;69.77;103281.22;5052831;28;20176;-43
2023/04/03 07:53:06;;;;;;;3.63;1.17;;;;;;;6.31;69.21;103265.53;5034862;28;20638;-43
2023/04/03 07:55:32;;;;;;;4.85;1.20;;;;;;;6.36;70.25;103274.47;5052786;28;20164;-45
2023/04/03 07:57:58;;;;;;;9.15;1.33;;;;;;;6.73;70.48;103278.69;5052551;28;20226;-43
2023/04/03 08:00:24;;;;;;;3.05;1.30;;;;;;;7.01;69.66;103287.16;5052653;28;20210;-44
2023/04/03 08:02:51;;;;;;;3.95;1.55;;;;;;;7.10;69.08;103278.41;5054777;28;20258;-45
2023/04/03 08:05:20;;;;;;;5.50;2.42;;;;;;;7.36;68.38;103263.69;5052551;28;20269;-45
2023/04/03 08:07:46;;;;;;;5.18;1.30;;;;;;;6.84;67.35;103256.69;5057690;28;20200;-44
2023/04/03 08:10:12;;;;;;;3.88;1.30;;;;;;;6.72;67.55;103262.72;5055778;28;20243;-45
2023/04/03 08:12:37;;;;;;;3.13;1.08;;;;;;;6.73;67.14;103253.84;5054731;28;20175;-45
2023/04/03 08:15:04;;;;;;;3.22;1.23;;;;;;;6.72;66.85;103249.38;5050571;28;20327;-45
2023/04/03 08:17:29;;;;;;;3.55;1.40;;;;;;;7.40;67.09;103254.88;5061604;28;20695;-46
2023/04/03 08:19:55;;;;;;;5.45;1.15;;;;;;;7.29;65.70;103237.81;5060974;28;20269;-46
2023/04/03 08:22:20;;;;;;;2.75;1.25;;;;;;;7.54;64.16;103211.47;5057931;28;20786;-45
2023/04/03 08:24:46;;;;;;;5.75;1.65;;;;;;;7.74;63.64;103220.66;5052459;28;20305;-46
2023/04/03 08:27:12;;;;;;;7.90;1.25;;;;;;;7.74;62.73;103209.03;5057471;28;20202;-44
2023/04/03 08:29:37;;;;;;;2.08;0.93;;;;;;;6.97;62.65;103195.59;5058469;28;20171;-45
2023/04/03 08:32:04;;;;;;;2.40;0.90;;;;;;;7.34;61.78;103201.44;5053194;28;20182;-47
2023/04/03 08:34:30;;;;;;;3.15;0.98;;;;;;;7.63;60.48;103187.56;5058059;28;20677;-44
2023/04/03 08:36:56;;;;;;;2.72;1.00;;;;;;;6.29;60.81;103166.97;5062397;28;20317;-45
2023/04/03 08:39:21;;;;;;;2.53;1.10;;;;;;;7.05;60.45;103177.06;5063469;28;20168;-45
2023/04/03 08:41:47;;;;;;;3.08;1.10;;;;;;;8.09;60.26;103185.44;5051355;28;20167;-44
2023/04/03 08:44:29;;;;;;;2.90;0.90;;;;;;;7.53;57.40;103151.91;5053482;28;20254;-41
2023/04/03 08:47:36;;;;;;;3.28;1.02;;;;;;;7.62;55.86;103127.09;5057932;28;20619;-42
2023/04/03 08:50:07;;;;;;;2.50;0.70;;;;;;;8.35;55.07;103118.00;5062211;28;20190;-43
2023/04/03 08:52:42;;;;;;;1.23;0.73;;;;;;;8.69;54.32;103112.94;5055555;28;20260;-42
2023/04/03 08:55:29;;;;;;;0.98;0.77;;;;;;;8.73;52.99;103104.94;5057743;28;20544;-43
2023/04/03 08:58:14;;;;;;;3.80;1.00;;;;;;;8.30;53.17;103101.03;5050259;28;20203;-43
2023/04/03 09:00:48;;;;;;;1.20;0.95;;;;;;;7.81;52.97;103097.06;5051366;28;20174;-43
2023/04/03 09:03:17;;;;;;;1.83;1.00;;;;;;;8.48;53.79;103113.66;5056971;28;20212;-41
2023/04/03 09:06:01;;;;;;;3.22;0.80;;;;;;;8.75;53.58;103116.53;5061402;28;20448;-43
2023/04/03 09:08:31;;;;;;;3.10;1.00;;;;;;;8.70;52.66;103101.34;5063248;28;20199;-44
2023/04/03 09:11:00;;;;;;;4.45;0.90;;;;;;;8.95;53.37;103119.31;5050631;28;20252;-43
2023/04/03 09:13:44;;;;;;;2.97;0.90;;;;;;;8.48;52.17;103100.31;5053955;28;20179;-42
2023/04/03 09:16:35;;;;;;;1.58;0.70;;;;;;;8.43;51.58;103093.16;5052326;28;20199;-46
2023/04/03 09:19:44;;;;;;;1.83;0.68;;;;;;;8.70;51.48;103096.00;5031103;28;20578;-44
2023/04/03 09:22:23;;;;;;;2.08;0.60;;;;;;;7.93;51.62;103095.38;5030142;28;20180;-47
2023/04/03 09:25:18;;;;;;;2.22;0.80;;;;;;;8.36;51.92;103104.66;5031140;28;20263;-43
2023/04/03 09:27:45;;;;;;;3.50;1.08;;;;;;;7.28;53.08;103093.81;5030957;28;20232;-44
2023/04/03 09:30:22;;;;;;;4.22;1.15;;;;;;;8.21;53.51;103129.44;5031097;28;20596;-44
2023/04/03 09:32:50;;;;;;;2.97;0.82;;;;;;;8.36;53.07;103128.69;5030737;28;20151;-44
2023/04/03 09:35:32;;;;;;;2.40;0.85;;;;;;;8.61;53.10;103129.78;5031246;28;20184;-44
2023/04/03 09:38:00;;;;;;;2.58;0.70;;;;;;;9.75;53.70;103157.09;5030552;28;20188;-44
2023/04/03 09:40:26;;;;;;;2.38;1.08;;;;;;;8.62;52.50;103118.22;5046066;28;20182;-47
2023/04/03 09:42:53;;;;;;;1.92;0.85;;;;;;;8.92;53.64;103140.72;5057824;28;20607;-47
2023/04/03 09:45:28;;;;;;;3.55;1.00;;;;;;;9.04;53.07;103137.19;5064975;28;20284;-47
2023/04/03 09:48:12;;;;;;;2.63;1.20;;;;;;;8.00;53.51;103134.59;5051072;28;20230;-49
2023/04/03 09:50:59;;;;;;;3.65;1.17;;;;;;;7.04;55.10;103134.38;5054041;28;20627;-48
2023/04/03 09:53:29;;;;;;;2.13;0.80;;;;;;;8.13;54.67;103147.19;5058602;28;20175;-49
2023/04/03 09:55:55;;;;;;;5.63;0.98;;;;;;;7.81;54.87;103144.22;5057827;28;20191;-49
2023/04/03 09:58:26;;;;;;;1.52;0.77;;;;;;;7.45;55.40;103153.56;5050118;28;20631;-48
2023/04/03 10:01:00;;;;;;;2.72;0.90;;;;;;;7.23;55.04;103144.41;5054844;28;20187;-48
2023/04/03 10:03:36;;;;;;;2.60;1.00;;;;;;;7.45;55.76;103156.25;5058140;28;20183;-48
2023/04/03 10:06:23;;;;;;;3.05;1.00;;;;;;;7.67;55.98;103154.72;5051019;28;20202;-47
2023/04/03 10:09:00;;;;;;;4.35;1.45;;;;;;;8.03;55.80;103148.00;5054026;28;20199;-48
2023/04/03 10:11:27;;;;;;;3.28;1.20;;;;;;;7.76;55.38;103151.25;5056090;28;20166;-47
2023/04/03 10:13:56;;;;;;;3.55;1.30;;;;;;;8.40;56.02;103154.59;5059044;28;20194;-47
2023/04/03 10:16:52;;;;;;;5.32;1.05;;;;;;;8.45;55.23;103133.25;5032774;28;20226;-47
2023/04/03 10:19:42;;;;;;;3.35;1.30;;;;;;;8.50;54.41;103125.25;5054415;28;20167;-48
2023/04/03 10:22:38;;;;;;;2.55;1.30;;;;;;;9.05;54.65;103137.22;5061751;28;20186;-48
2023/04/03 10:25:22;;;;;;;1.95;0.98;;;;;;;8.79;53.79;103112.09;5066001;28;20222;-48
2023/04/03 10:28:05;;;;;;;3.03;0.95;;;;;;;7.77;53.18;103089.91;5054265;28;20198;-49
2023/04/03 10:30:56;;;;;;;3.20;1.02;;;;;;;6.96;54.82;103108.53;5052292;28;20871;-50
2023/04/03 10:33:34;;;;;;;4.03;1.10;;;;;;;6.71;56.32;103128.63;5050812;28;20258;-46
2023/04/03 10:36:17;;;;;;;3.38;1.10;;;;;;;6.83;57.12;103138.53;5050515;28;20178;-48
2023/04/03 10:39:04;;;;;;;2.88;1.33;;;;;;;6.63;57.60;103148.91;5060875;28;20182;-51
2023/04/03 10:42:06;;;;;;;4.32;1.00;;;;;;;6.65;57.36;103151.56;5053562;28;20183;-47
2023/04/03 10:44:49;;;;;;;4.82;1.17;;;;;;;7.36;57.00;103156.13;5038857;28;20263;-52
2023/04/03 10:47:24;;;;;;;3.50;1.10;;;;;;;6.90;56.34;103136.88;5052214;28;20207;-47
2023/04/03 10:50:08;;;;;;;2.85;1.13;;;;;;;6.81;55.71;103129.63;5058771;28;20178;-51
2023/04/03 10:52:36;;;;;;;2.30;0.88;;;;;;;6.34;54.67;103105.81;5053180;28;20198;-51
2023/04/03 10:55:05;;;;;;;2.03;0.93;;;;;;;6.53;54.20;103107.00;5049286;28;20485;-47
2023/04/03 10:57:31;;;;;;;2.50;0.60;;;;;;;7.11;51.56;103075.84;5055109;28;20210;-49
2023/04/03 11:00:01;;;;;;;2.72;0.75;;;;;;;6.85;50.45;103046.19;5055392;28;20191;-48
2023/04/03 11:02:39;;;;;;;1.25;0.60;;;;;;;7.39;49.97;103038.81;5048355;28;20183;-49
2023/04/03 11:05:34;;;;;;;2.60;0.70;;;;;;;7.42;48.28;103029.09;5050411;28;20604;-51
2023/04/03 11:08:04;;;;;;;1.58;0.60;;;;;;;7.53;48.82;103037.19;5048388;28;20220;-47
2023/04/03 11:10:46;;;;;;;4.63;1.02;;;;;;;7.36;48.91;103021.00;5058194;28;20689;-46
2023/04/03 11:13:17;;;;;;;1.35;0.63;;;;;;;7.98;50.11;103040.25;5050284;28;20654;-47
2023/04/03 11:15:46;;;;;;;1.27;0.50;;;;;;;7.36;50.23;103037.00;5052097;28;20183;-45
2023/04/03 11:18:27;;;;;;;1.77;0.80;;;;;;;7.68;49.36;103036.47;5055558;28;20183;-47
2023/04/03 11:21:05;;;;;;;3.25;0.77;;;;;;;7.08;48.05;102994.94;5053913;28;20186;-47
2023/04/03 11:23:36;;;;;;;1.83;0.60;;;;;;;6.56;50.03;103028.06;5049753;28;20191;-47
2023/04/03 11:26:12;;;;;;;1.48;0.60;;;;;;;7.47;51.52;103073.59;5054589;28;20203;-45
2023/04/03 11:28:39;;;;;;;1.83;0.80;;;;;;;6.73;50.97;103048.69;5063775;28;20211;-47
2023/04/03 11:31:26;;;;;;;1.45;0.80;;;;;;;6.98;51.07;103063.25;5041130;28;20538;-46
2023/04/03 11:34:03;;;;;;;2.60;0.52;;;;;;;6.67;50.41;103043.28;5049131;28;20249;-46